sensor_id;sensor_type;location;lat;lon;timestamp;pressure;altitude;pressure_sealevel;temperature;humidity
51759;BME280;66684;47.568;18.734;2023-06-10T00:01:41;99058.13;;;16.09;100.00
51759;BME280;66684;47.568;18.734;2023-06-10T00:04:08;99061.66;;;16.17;100.00
51759;BME280;66684;47.568;18.734;2023-06-10T00:06:34;99060.88;;;16.28;100.00
51759;BME280;66684;47.568;18.734;2023-06-10T00:09:04;99054.78;;;16.26;100.00
51759;BME280;66684;47.568;18.734;2023-06-10T00:11:34;99051.28;;;16.24;100.00
51759;BME280;66684;47.568;18.734;2023-06-10T00:14:00;99056.19;;;15.93;100.00
51759;BME280;66684;47.568;18.734;2023-06-10T00:16:26;99056.09;;;15.84;100.00
51759;BME280;66684;47.568;18.734;2023-06-10T00:18:52;99059.47;;;15.74;100.00
51759;BME280;66684;47.568;18.734;2023-06-10T00:21:22;99055.06;;;15.70;100.00
51759;BME280;66684;47.568;18.734;2023-06-10T00:23:47;99046.47;;;15.77;100.00
51759;BME280;66684;47.568;18.734;2023-06-10T00:26:14;99038.72;;;15.81;100.00
51759;BME280;66684;47.568;18.734;2023-06-10T00:28:40;99043.06;;;15.84;100.00
51759;BME280;66684;47.568;18.734;2023-06-10T00:31:06;99039.69;;;15.94;100.00
51759;BME280;66684;47.568;18.734;2023-06-10T00:33:36;99044.09;;;15.98;100.00
51759;BME280;66684;47.568;18.734;2023-06-10T00:36:02;99051.09;;;16.04;100.00
51759;BME280;66684;47.568;18.734;2023-06-10T00:38:28;99048.47;;;16.02;100.00
51759;BME280;66684;47.568;18.734;2023-06-10T00:40:54;99049.44;;;16.10;100.00
51759;BME280;66684;47.568;18.734;2023-06-10T00:43:21;99045.16;;;16.15;100.00
51759;BME280;66684;47.568;18.734;2023-06-10T00:45:51;99052.09;;;16.16;100.00
51759;BME280;66684;47.568;18.734;2023-06-10T00:48:18;99049.50;;;16.16;100.00
51759;BME280;66684;47.568;18.734;2023-06-10T00:50:45;99042.50;;;16.12;100.00
51759;BME280;66684;47.568;18.734;2023-06-10T00:53:13;99056.34;;;16.08;100.00
51759;BME280;66684;47.568;18.734;2023-06-10T00:55:40;99054.59;;;16.07;100.00
51759;BME280;66684;47.568;18.734;2023-06-10T00:58:06;99052.78;;;15.97;100.00
51759;BME280;66684;47.568;18.734;2023-06-10T01:00:33;99059.62;;;15.89;100.00
51759;BME280;66684;47.568;18.734;2023-06-10T01:02:59;99058.69;;;15.84;100.00
51759;BME280;66684;47.568;18.734;2023-06-10T01:05:24;99059.66;;;15.90;100.00
51759;BME280;66684;47.568;18.734;2023-06-10T01:08:06;99058.00;;;15.97;100.00
51759;BME280;66684;47.568;18.734;2023-06-10T01:10:37;99056.22;;;15.96;100.00
51759;BME280;66684;47.568;18.734;2023-06-10T01:13:07;99053.66;;;16.02;100.00
51759;BME280;66684;47.568;18.734;2023-06-10T01:15:34;99057.16;;;16.03;100.00
51759;BME280;66684;47.568;18.734;2023-06-10T01:18:02;99057.00;;;15.86;100.00
51759;BME280;66684;47.568;18.734;2023-06-10T01:20:31;99054.25;;;15.74;100.00
51759;BME280;66684;47.568;18.734;2023-06-10T01:22:58;99061.28;;;15.84;100.00
51759;BME280;66684;47.568;18.734;2023-06-10T01:25:26;99057.56;;;15.60;100.00
51759;BME280;66684;47.568;18.734;2023-06-10T01:28:14;99054.81;;;15.51;100.00
51759;BME280;66684;47.568;18.734;2023-06-10T01:31:07;99060.25;;;15.65;100.00
51759;BME280;66684;47.568;18.734;2023-06-10T01:33:43;99057.47;;;15.54;100.00
51759;BME280;66684;47.568;18.734;2023-06-10T01:36:09;99054.88;;;15.53;100.00
51759;BME280;66684;47.568;18.734;2023-06-10T01:38:40;99062.75;;;15.60;100.00
51759;BME280;66684;47.568;18.734;2023-06-10T01:41:08;99057.50;;;15.57;100.00
51759;BME280;66684;47.568;18.734;2023-06-10T01:43:35;99056.81;;;15.69;100.00
51759;BME280;66684;47.568;18.734;2023-06-10T01:46:02;99055.94;;;15.69;100.00
51759;BME280;66684;47.568;18.734;2023-06-10T01:48:28;99057.81;;;15.82;100.00
51759;BME280;66684;47.568;18.734;2023-06-10T01:50:54;99056.16;;;15.90;100.00
51759;BME280;66684;47.568;18.734;2023-06-10T01:53:22;99052.78;;;15.97;100.00
51759;BME280;66684;47.568;18.734;2023-06-10T01:55:51;99047.53;;;15.94;100.00
51759;BME280;66684;47.568;18.734;2023-06-10T01:58:19;99053.59;;;15.91;100.00
51759;BME280;66684;47.568;18.734;2023-06-10T02:00:45;99045.72;;;15.90;100.00
51759;BME280;66684;47.568;18.734;2023-06-10T02:03:11;99049.25;;;15.92;100.00
51759;BME280;66684;47.568;18.734;2023-06-10T02:05:37;99043.13;;;15.88;100.00
51759;BME280;66684;47.568;18.734;2023-06-10T02:08:03;99044.91;;;15.96;100.00
51759;BME280;66684;47.568;18.734;2023-06-10T02:10:29;99052.91;;;16.12;100.00
51759;BME280;66684;47.568;18.734;2023-06-10T02:12:55;99051.19;;;16.11;100.00
51759;BME280;66684;47.568;18.734;2023-06-10T02:15:21;99054.75;;;16.23;100.00
51759;BME280;66684;47.568;18.734;2023-06-10T02:17:47;99054.78;;;16.26;100.00
51759;BME280;66684;47.568;18.734;2023-06-10T02:20:14;99053.09;;;16.34;100.00
51759;BME280;66684;47.568;18.734;2023-06-10T02:22:40;99058.38;;;16.40;100.00
51759;BME280;66684;47.568;18.734;2023-06-10T02:25:07;99058.34;;;16.38;100.00
51759;BME280;66684;47.568;18.734;2023-06-10T02:27:33;99055.69;;;16.32;100.00
51759;BME280;66684;47.568;18.734;2023-06-10T02:29:59;99054.06;;;16.43;100.00
51759;BME280;66684;47.568;18.734;2023-06-10T02:32:25;99053.19;;;16.46;100.00
51759;BME280;66684;47.568;18.734;2023-06-10T02:34:51;99054.00;;;16.39;100.00
51759;BME280;66684;47.568;18.734;2023-06-10T02:37:18;99058.28;;;16.31;100.00
51759;BME280;66684;47.568;18.734;2023-06-10T02:39:44;99056.50;;;16.25;100.00
51759;BME280;66684;47.568;18.734;2023-06-10T02:42:10;99052.22;;;16.32;100.00
51759;BME280;66684;47.568;18.734;2023-06-10T02:44:37;99054.69;;;16.16;100.00
51759;BME280;66684;47.568;18.734;2023-06-10T02:47:03;99057.19;;;16.04;100.00
51759;BME280;66684;47.568;18.734;2023-06-10T02:49:28;99061.56;;;16.08;100.00
51759;BME280;66684;47.568;18.734;2023-06-10T02:51:54;99060.66;;;16.05;100.00
51759;BME280;66684;47.568;18.734;2023-06-10T02:54:20;99057.19;;;16.06;100.00
51759;BME280;66684;47.568;18.734;2023-06-10T02:56:46;99056.34;;;16.08;100.00
51759;BME280;66684;47.568;18.734;2023-06-10T02:59:14;99052.03;;;16.10;100.00
51759;BME280;66684;47.568;18.734;2023-06-10T03:01:40;99059.97;;;16.23;100.00
51759;BME280;66684;47.568;18.734;2023-06-10T03:04:07;99069.44;;;16.14;100.00
51759;BME280;66684;47.568;18.734;2023-06-10T03:06:33;99067.69;;;16.13;100.00
51759;BME280;66684;47.568;18.734;2023-06-10T03:09:02;99067.81;;;16.26;100.00
51759;BME280;66684;47.568;18.734;2023-06-10T03:11:33;99067.62;;;16.07;100.00
51759;BME280;66684;47.568;18.734;2023-06-10T03:13:59;99064.88;;;15.94;100.00
51759;BME280;66684;47.568;18.734;2023-06-10T03:16:25;99061.47;;;15.99;100.00
51759;BME280;66684;47.568;18.734;2023-06-10T03:18:51;99061.44;;;15.96;100.00
51759;BME280;66684;47.568;18.734;2023-06-10T03:21:17;99060.66;;;16.03;100.00
51759;BME280;66684;47.568;18.734;2023-06-10T03:23:43;99063.25;;;16.03;100.00
51759;BME280;66684;47.568;18.734;2023-06-10T03:26:10;99061.59;;;16.11;100.00
51759;BME280;66684;47.568;18.734;2023-06-10T03:28:37;99056.31;;;16.05;100.00
51759;BME280;66684;47.568;18.734;2023-06-10T03:31:03;99068.59;;;16.15;100.00
51759;BME280;66684;47.568;18.734;2023-06-10T03:33:29;99062.59;;;16.27;100.00
51759;BME280;66684;47.568;18.734;2023-06-10T03:35:55;99068.78;;;16.35;100.00
51759;BME280;66684;47.568;18.734;2023-06-10T03:38:21;99061.00;;;16.43;100.00
51759;BME280;66684;47.568;18.734;2023-06-10T03:40:47;99062.84;;;16.53;100.00
51759;BME280;66684;47.568;18.734;2023-06-10T03:43:13;99059.31;;;16.48;100.00
51759;BME280;66684;47.568;18.734;2023-06-10T03:45:39;99061.16;;;16.61;100.00
51759;BME280;66684;47.568;18.734;2023-06-10T03:48:07;99063.00;;;16.70;100.00
51759;BME280;66684;47.568;18.734;2023-06-10T03:50:34;99067.31;;;16.69;100.00
51759;BME280;66684;47.568;18.734;2023-06-10T03:53:01;99070.84;;;16.75;100.00
51759;BME280;66684;47.568;18.734;2023-06-10T03:55:28;99067.41;;;16.82;100.00
51759;BME280;66684;47.568;18.734;2023-06-10T03:57:54;99065.72;;;16.87;100.00
51759;BME280;66684;47.568;18.734;2023-06-10T04:00:20;99070.09;;;16.91;100.00
51759;BME280;66684;47.568;18.734;2023-06-10T04:02:47;99068.41;;;17.01;100.00
51759;BME280;66684;47.568;18.734;2023-06-10T04:05:19;99076.31;;;17.11;100.00
51759;BME280;66684;47.568;18.734;2023-06-10T04:07:47;99067.66;;;17.21;100.00
51759;BME280;66684;47.568;18.734;2023-06-10T04:10:14;99064.22;;;17.32;100.00
51759;BME280;66684;47.568;18.734;2023-06-10T04:12:41;99064.22;;;17.32;100.00
51759;BME280;66684;47.568;18.734;2023-06-10T04:15:08;99062.53;;;17.37;100.00
51759;BME280;66684;47.568;18.734;2023-06-10T04:17:34;99053.81;;;17.41;100.00
51759;BME280;66684;47.568;18.734;2023-06-10T04:20:00;99049.47;;;17.40;100.00
51759;BME280;66684;47.568;18.734;2023-06-10T04:22:26;99053.84;;;17.47;100.00
51759;BME280;66684;47.568;18.734;2023-06-10T04:24:52;99055.59;;;17.42;100.00
51759;BME280;66684;47.568;18.734;2023-06-10T04:27:18;99060.88;;;17.54;100.00
51759;BME280;66684;47.568;18.734;2023-06-10T04:29:44;99059.16;;;17.62;100.00
51759;BME280;66684;47.568;18.734;2023-06-10T04:32:10;99065.31;;;17.76;100.00
51759;BME280;66684;47.568;18.734;2023-06-10T04:34:36;99067.84;;;17.61;100.00
51759;BME280;66684;47.568;18.734;2023-06-10T04:37:04;99067.84;;;17.61;100.00
51759;BME280;66684;47.568;18.734;2023-06-10T04:39:30;99064.34;;;17.65;100.00
51759;BME280;66684;47.568;18.734;2023-06-10T04:41:57;99063.50;;;17.63;100.00
51759;BME280;66684;47.568;18.734;2023-06-10T04:44:23;99061.81;;;17.71;100.00
51759;BME280;66684;47.568;18.734;2023-06-10T04:46:49;99067.94;;;17.81;100.00
51759;BME280;66684;47.568;18.734;2023-06-10T04:49:14;99069.69;;;17.90;100.00
51759;BME280;66684;47.568;18.734;2023-06-10T04:51:41;99065.16;;;17.44;100.00
51759;BME280;66684;47.568;18.734;2023-06-10T04:54:06;99066.19;;;17.78;100.00
51759;BME280;66684;47.568;18.734;2023-06-10T04:56:32;99071.34;;;17.63;100.00
51759;BME280;66684;47.568;18.734;2023-06-10T04:58:59;99063.53;;;17.66;100.00
51759;BME280;66684;47.568;18.734;2023-06-10T05:01:25;99063.59;;;17.89;100.00
51759;BME280;66684;47.568;18.734;2023-06-10T05:03:51;99067.09;;;17.88;100.00
51759;BME280;66684;47.568;18.734;2023-06-10T05:06:17;99063.66;;;18.06;100.00
51759;BME280;66684;47.568;18.734;2023-06-10T05:08:43;99068.00;;;18.13;100.00
51759;BME280;66684;47.568;18.734;2023-06-10T05:11:09;99069.78;;;18.19;100.00
51759;BME280;66684;47.568;18.734;2023-06-10T05:13:35;99074.13;;;18.33;100.00
51759;BME280;66684;47.568;18.734;2023-06-10T05:16:02;99065.44;;;18.54;100.00
51759;BME280;66684;47.568;18.734;2023-06-10T05:18:28;99072.41;;;18.65;100.00
51759;BME280;66684;47.568;18.734;2023-06-10T05:20:54;99068.06;;;18.50;100.00
51759;BME280;66684;47.568;18.734;2023-06-10T05:23:20;99076.75;;;18.58;100.00
51759;BME280;66684;47.568;18.734;2023-06-10T05:25:46;99080.28;;;18.83;100.00
51759;BME280;66684;47.568;18.734;2023-06-10T05:28:12;99085.47;;;19.04;100.00
51759;BME280;66684;47.568;18.734;2023-06-10T05:30:38;99088.97;;;19.11;100.00
51759;BME280;66684;47.568;18.734;2023-06-10T05:33:04;99087.16;;;19.28;100.00
51759;BME280;66684;47.568;18.734;2023-06-10T05:35:30;99089.81;;;19.21;100.00
51759;BME280;66684;47.568;18.734;2023-06-10T05:37:56;99087.19;;;19.16;100.00
51759;BME280;66684;47.568;18.734;2023-06-10T05:40:22;99080.22;;;19.18;100.00
51759;BME280;66684;47.568;18.734;2023-06-10T05:42:49;99074.09;;;19.10;100.00
51759;BME280;66684;47.568;18.734;2023-06-10T05:45:15;99078.50;;;19.05;100.00
51759;BME280;66684;47.568;18.734;2023-06-10T05:47:41;99080.22;;;19.03;100.00
51759;BME280;66684;47.568;18.734;2023-06-10T05:50:07;99083.72;;;19.14;100.00
51759;BME280;66684;47.568;18.734;2023-06-10T05:52:35;99080.25;;;19.06;100.00
51759;BME280;66684;47.568;18.734;2023-06-10T05:55:02;99083.69;;;19.20;100.00
51759;BME280;66684;47.568;18.734;2023-06-10T05:57:28;99084.56;;;19.25;100.00
51759;BME280;66684;47.568;18.734;2023-06-10T05:59:54;99090.59;;;19.46;100.00
51759;BME280;66684;47.568;18.734;2023-06-10T06:02:19;99087.09;;;19.62;100.00
51759;BME280;66684;47.568;18.734;2023-06-10T06:04:45;99082.56;;;19.94;100.00
51759;BME280;66684;47.568;18.734;2023-06-10T06:07:11;99091.31;;;19.93;100.00
51759;BME280;66684;47.568;18.734;2023-06-10T06:09:37;99084.22;;;20.08;100.00
51759;BME280;66684;47.568;18.734;2023-06-10T06:12:03;99091.00;;;20.39;100.00
51759;BME280;66684;47.568;18.734;2023-06-10T06:14:31;99081.19;;;20.69;100.00
51759;BME280;66684;47.568;18.734;2023-06-10T06:16:58;99086.34;;;20.78;100.00
51759;BME280;66684;47.568;18.734;2023-06-10T06:19:23;99087.97;;;20.94;100.00
51759;BME280;66684;47.568;18.734;2023-06-10T06:21:49;99083.41;;;21.10;100.00
51759;BME280;66684;47.568;18.734;2023-06-10T06:24:16;99085.06;;;21.20;100.00
51759;BME280;66684;47.568;18.734;2023-06-10T06:26:42;99079.69;;;21.34;100.00
51759;BME280;66684;47.568;18.734;2023-06-10T06:29:08;99086.69;;;21.35;100.00
51759;BME280;66684;47.568;18.734;2023-06-10T06:31:34;99096.16;;;21.48;100.00
51759;BME280;66684;47.568;18.734;2023-06-10T06:34:00;99087.37;;;21.49;100.00
51759;BME280;66684;47.568;18.734;2023-06-10T06:36:26;99096.16;;;21.48;100.00
51759;BME280;66684;47.568;18.734;2023-06-10T06:38:51;99098.88;;;21.42;100.00
51759;BME280;66684;47.568;18.734;2023-06-10T06:41:17;99089.34;;;21.32;100.00
51759;BME280;66684;47.568;18.734;2023-06-10T06:43:43;99102.16;;;20.72;100.00
51759;BME280;66684;47.568;18.734;2023-06-10T06:46:09;99101.16;;;20.88;100.00
51759;BME280;66684;47.568;18.734;2023-06-10T06:48:35;99096.56;;;21.09;100.00
51759;BME280;66684;47.568;18.734;2023-06-10T06:51:01;99106.03;;;21.26;100.00
51759;BME280;66684;47.568;18.734;2023-06-10T06:53:27;99100.66;;;21.40;99.98
51759;BME280;66684;47.568;18.734;2023-06-10T06:55:53;99101.41;;;21.48;98.10
51759;BME280;66684;47.568;18.734;2023-06-10T06:58:19;99101.28;;;21.61;97.46
51759;BME280;66684;47.568;18.734;2023-06-10T07:00:44;99100.97;;;21.85;98.06
51759;BME280;66684;47.568;18.734;2023-06-10T07:03:10;99100.59;;;22.16;96.66
51759;BME280;66684;47.568;18.734;2023-06-10T07:05:37;99099.25;;;21.83;96.38
51759;BME280;66684;47.568;18.734;2023-06-10T07:08:04;99099.19;;;21.87;95.43
51759;BME280;66684;47.568;18.734;2023-06-10T07:10:30;99100.88;;;21.94;95.52
51759;BME280;66684;47.568;18.734;2023-06-10T07:12:56;99100.38;;;21.63;100.00
51759;BME280;66684;47.568;18.734;2023-06-10T07:15:22;99097.12;;;21.41;100.00
51759;BME280;66684;47.568;18.734;2023-06-10T07:17:48;99102.53;;;21.24;100.00
51759;BME280;66684;47.568;18.734;2023-06-10T07:20:14;99102.00;;;20.90;100.00
51759;BME280;66684;47.568;18.734;2023-06-10T07:22:41;99105.41;;;21.01;100.00
51759;BME280;66684;47.568;18.734;2023-06-10T07:25:07;99111.34;;;21.20;99.68
51759;BME280;66684;47.568;18.734;2023-06-10T07:27:33;99106.56;;;21.59;100.00
51759;BME280;66684;47.568;18.734;2023-06-10T07:30:02;99100.88;;;21.94;98.54
51759;BME280;66684;47.568;18.734;2023-06-10T07:32:27;99103.88;;;22.30;96.99
51759;BME280;66684;47.568;18.734;2023-06-10T07:34:53;99108.44;;;22.20;96.34
51759;BME280;66684;47.568;18.734;2023-06-10T07:37:19;99110.03;;;21.63;100.00
51759;BME280;66684;47.568;18.734;2023-06-10T07:39:45;99113.66;;;21.52;96.94
51759;BME280;66684;47.568;18.734;2023-06-10T07:42:11;99101.25;;;21.64;94.81
51759;BME280;66684;47.568;18.734;2023-06-10T07:44:37;99104.69;;;21.70;96.61
51759;BME280;66684;47.568;18.734;2023-06-10T07:47:03;99108.69;;;21.22;100.00
51759;BME280;66684;47.568;18.734;2023-06-10T07:49:29;99107.13;;;21.02;100.00
51759;BME280;66684;47.568;18.734;2023-06-10T07:51:56;99103.38;;;21.33;100.00
51759;BME280;66684;47.568;18.734;2023-06-10T07:54:22;99095.69;;;21.88;100.00
51759;BME280;66684;47.568;18.734;2023-06-10T07:56:47;99099.81;;;22.09;100.00
51759;BME280;66684;47.568;18.734;2023-06-10T07:59:14;99110.91;;;22.29;100.00
51759;BME280;66684;47.568;18.734;2023-06-10T08:01:40;99102.88;;;22.40;100.00
51759;BME280;66684;47.568;18.734;2023-06-10T08:04:06;99110.56;;;21.91;100.00
51759;BME280;66684;47.568;18.734;2023-06-10T08:06:33;99101.53;;;21.39;100.00
51759;BME280;66684;47.568;18.734;2023-06-10T08:08:59;99110.53;;;21.14;100.00
51759;BME280;66684;47.568;18.734;2023-06-10T08:11:25;99110.66;;;20.98;100.00
51759;BME280;66684;47.568;18.734;2023-06-10T08:13:54;99109.66;;;21.13;100.00
51759;BME280;66684;47.568;18.734;2023-06-10T08:16:20;99110.59;;;21.08;100.00
51759;BME280;66684;47.568;18.734;2023-06-10T08:18:46;99108.06;;;21.00;100.00
51759;BME280;66684;47.568;18.734;2023-06-10T08:21:11;99112.34;;;21.06;100.00
51759;BME280;66684;47.568;18.734;2023-06-10T08:23:37;99115.84;;;21.08;100.00
51759;BME280;66684;47.568;18.734;2023-06-10T08:26:03;99100.31;;;20.80;100.00
51759;BME280;66684;47.568;18.734;2023-06-10T08:28:29;99108.22;;;20.79;100.00
51759;BME280;66684;47.568;18.734;2023-06-10T08:30:55;99110.59;;;21.08;100.00
51759;BME280;66684;47.568;18.734;2023-06-10T08:33:21;99108.97;;;20.94;100.00
51759;BME280;66684;47.568;18.734;2023-06-10T08:35:47;99108.16;;;20.85;100.00
51759;BME280;66684;47.568;18.734;2023-06-10T08:38:13;99104.06;;;20.53;100.00
51759;BME280;66684;47.568;18.734;2023-06-10T08:40:39;99111.06;;;20.53;100.00
51759;BME280;66684;47.568;18.734;2023-06-10T08:43:07;99110.28;;;20.37;100.00
51759;BME280;66684;47.568;18.734;2023-06-10T08:45:35;99099.06;;;20.12;100.00
51759;BME280;66684;47.568;18.734;2023-06-10T08:48:03;99107.72;;;20.23;100.00
51759;BME280;66684;47.568;18.734;2023-06-10T08:50:37;99104.31;;;20.09;100.00
51759;BME280;66684;47.568;18.734;2023-06-10T08:53:24;99105.09;;;20.23;100.00
51759;BME280;66684;47.568;18.734;2023-06-10T08:56:30;99102.44;;;20.32;100.00
51759;BME280;66684;47.568;18.734;2023-06-10T08:58:58;99102.34;;;20.47;100.00
51759;BME280;66684;47.568;18.734;2023-06-10T09:01:26;99102.34;;;20.44;100.00
51759;BME280;66684;47.568;18.734;2023-06-10T09:03:52;99102.47;;;20.23;100.00
51759;BME280;66684;47.568;18.734;2023-06-10T09:06:18;99089.44;;;20.11;100.00
51759;BME280;66684;47.568;18.734;2023-06-10T09:08:44;99095.53;;;20.19;100.00
51759;BME280;66684;47.568;18.734;2023-06-10T09:11:10;99095.34;;;20.42;100.00
51759;BME280;66684;47.568;18.734;2023-06-10T09:13:36;99089.16;;;20.57;100.00
51759;BME280;66684;47.568;18.734;2023-06-10T09:16:02;99092.59;;;20.68;100.00
51759;BME280;66684;47.568;18.734;2023-06-10T09:18:28;99088.09;;;20.79;100.00
51759;BME280;66684;47.568;18.734;2023-06-10T09:20:54;99083.62;;;20.90;100.00
51759;BME280;66684;47.568;18.734;2023-06-10T09:23:21;99085.53;;;20.71;100.00
51759;BME280;66684;47.568;18.734;2023-06-10T09:25:56;99081.34;;;20.47;100.00
51759;BME280;66684;47.568;18.734;2023-06-10T09:28:22;99082.22;;;20.48;100.00
51759;BME280;66684;47.568;18.734;2023-06-10T09:30:48;99080.44;;;20.53;100.00
51759;BME280;66684;47.568;18.734;2023-06-10T09:33:14;99078.66;;;20.58;100.00
51759;BME280;66684;47.568;18.734;2023-06-10T09:35:46;99084.81;;;20.53;100.00
51759;BME280;66684;47.568;18.734;2023-06-10T09:38:14;99088.34;;;20.47;100.00
51759;BME280;66684;47.568;18.734;2023-06-10T09:40:51;99082.19;;;20.56;100.00
51759;BME280;66684;47.568;18.734;2023-06-10T09:43:17;99085.78;;;20.36;100.00
51759;BME280;66684;47.568;18.734;2023-06-10T09:45:43;99084.00;;;20.43;100.00
51759;BME280;66684;47.568;18.734;2023-06-10T09:48:09;99084.84;;;20.50;100.00
51759;BME280;66684;47.568;18.734;2023-06-10T09:50:42;99079.59;;;20.50;100.00
51759;BME280;66684;47.568;18.734;2023-06-10T09:53:08;99081.28;;;20.57;100.00
51759;BME280;66684;47.568;18.734;2023-06-10T09:55:34;99076.00;;;20.63;100.00
51759;BME280;66684;47.568;18.734;2023-06-10T09:58:00;99081.94;;;20.80;100.00
51759;BME280;66684;47.568;18.734;2023-06-10T10:00:26;99083.53;;;20.99;100.00
51759;BME280;66684;47.568;18.734;2023-06-10T10:02:53;99075.44;;;21.19;100.00
51759;BME280;66684;47.568;18.734;2023-06-10T10:05:20;99073.44;;;21.44;100.00
51759;BME280;66684;47.568;18.734;2023-06-10T10:07:47;99077.50;;;21.70;100.00
51759;BME280;66684;47.568;18.734;2023-06-10T10:10:15;99077.06;;;22.03;100.00
51759;BME280;66684;47.568;18.734;2023-06-10T10:12:41;99075.78;;;21.67;100.00
51759;BME280;66684;47.568;18.734;2023-06-10T10:15:09;99071.94;;;21.94;100.00
51759;BME280;66684;47.568;18.734;2023-06-10T10:17:47;99065.38;;;22.26;100.00
51759;BME280;66684;47.568;18.734;2023-06-10T10:20:18;99064.66;;;22.69;98.11
51759;BME280;66684;47.568;18.734;2023-06-10T10:22:47;99064.13;;;23.01;94.67
51759;BME280;66684;47.568;18.734;2023-06-10T10:25:23;99058.72;;;23.08;90.84
51759;BME280;66684;47.568;18.734;2023-06-10T10:27:57;99072.50;;;22.72;89.83
51759;BME280;66684;47.568;18.734;2023-06-10T10:30:25;99059.34;;;22.72;94.46
51759;BME280;66684;47.568;18.734;2023-06-10T10:32:57;99061.88;;;22.78;93.77
51759;BME280;66684;47.568;18.734;2023-06-10T10:35:30;99057.09;;;23.01;93.79
51759;BME280;66684;47.568;18.734;2023-06-10T10:37:56;99056.25;;;23.44;91.72
51759;BME280;66684;47.568;18.734;2023-06-10T10:40:22;99052.38;;;23.62;91.19
51759;BME280;66684;47.568;18.734;2023-06-10T10:42:49;99051.50;;;24.03;87.53
51759;BME280;66684;47.568;18.734;2023-06-10T10:45:15;99047.72;;;24.13;77.97
51759;BME280;66684;47.568;18.734;2023-06-10T10:47:43;99051.56;;;23.57;76.31
51759;BME280;66684;47.568;18.734;2023-06-10T10:50:15;99042.59;;;23.24;77.55
51759;BME280;66684;47.568;18.734;2023-06-10T10:53:01;99042.47;;;23.30;83.73
51759;BME280;66684;47.568;18.734;2023-06-10T10:55:27;99039.38;;;23.53;81.54
51759;BME280;66684;47.568;18.734;2023-06-10T10:58:05;99034.97;;;23.53;77.32
51759;BME280;66684;47.568;18.734;2023-06-10T11:00:36;99029.38;;;23.68;80.72
51759;BME280;66684;47.568;18.734;2023-06-10T11:05:36;99033.03;;;24.03;73.16
51759;BME280;66684;47.568;18.734;2023-06-10T11:08:03;99027.25;;;24.60;76.97
51759;BME280;66684;47.568;18.734;2023-06-10T11:10:33;99013.75;;;25.05;74.28
51759;BME280;66684;47.568;18.734;2023-06-10T11:13:01;99015.22;;;24.83;71.42
51759;BME280;66684;47.568;18.734;2023-06-10T11:15:30;99016.97;;;24.49;68.17
51759;BME280;66684;47.568;18.734;2023-06-10T11:18:11;99013.41;;;24.13;70.14
51759;BME280;66684;47.568;18.734;2023-06-10T11:29:04;99016.50;;;24.31;77.38
51759;BME280;66684;47.568;18.734;2023-06-10T11:31:38;99014.97;;;24.59;77.61
51759;BME280;66684;47.568;18.734;2023-06-10T11:34:06;99012.56;;;24.83;74.93
51759;BME280;66684;47.568;18.734;2023-06-10T11:36:34;99018.25;;;24.67;72.51
51759;BME280;66684;47.568;18.734;2023-06-10T11:39:03;99001.44;;;25.04;73.57
51759;BME280;66684;47.568;18.734;2023-06-10T11:41:31;99013.00;;;25.62;73.28
51759;BME280;66684;47.568;18.734;2023-06-10T11:44:02;99004.66;;;25.77;65.63
51759;BME280;66684;47.568;18.734;2023-06-10T11:46:28;99001.63;;;25.90;69.04
51759;BME280;66684;47.568;18.734;2023-06-10T11:48:56;99006.44;;;25.75;68.75
51759;BME280;66684;47.568;18.734;2023-06-10T11:51:26;99006.19;;;25.85;66.56
51759;BME280;66684;47.568;18.734;2023-06-10T11:53:52;98999.50;;;25.71;66.44
51759;BME280;66684;47.568;18.734;2023-06-10T11:56:20;99003.16;;;25.67;62.86
51759;BME280;66684;47.568;18.734;2023-06-10T11:58:55;98990.38;;;25.81;58.38
51759;BME280;66684;47.568;18.734;2023-06-10T12:01:22;98995.81;;;26.05;57.63
51759;BME280;66684;47.568;18.734;2023-06-10T12:03:59;98995.41;;;25.91;59.37
51759;BME280;66684;47.568;18.734;2023-06-10T12:06:25;99003.34;;;26.45;64.44
51759;BME280;66684;47.568;18.734;2023-06-10T12:08:51;99000.69;;;26.72;61.92
51759;BME280;66684;47.568;18.734;2023-06-10T12:11:17;98994.41;;;26.99;62.51
51759;BME280;66684;47.568;18.734;2023-06-10T12:13:48;98985.78;;;27.42;64.53
51759;BME280;66684;47.568;18.734;2023-06-10T12:16:15;98989.84;;;27.03;62.57
51759;BME280;66684;47.568;18.734;2023-06-10T12:18:43;98990.62;;;27.31;66.23
51759;BME280;66684;47.568;18.734;2023-06-10T12:21:23;98985.53;;;26.75;61.28
51759;BME280;66684;47.568;18.734;2023-06-10T12:24:09;98974.84;;;26.53;63.76
51759;BME280;66684;47.568;18.734;2023-06-10T12:26:36;98976.88;;;27.20;59.90
51759;BME280;66684;47.568;18.734;2023-06-10T12:29:16;98971.09;;;27.32;55.62
51759;BME280;66684;47.568;18.734;2023-06-10T12:31:59;98972.00;;;27.09;56.41
51759;BME280;66684;47.568;18.734;2023-06-10T12:34:39;98968.59;;;26.28;54.22
51759;BME280;66684;47.568;18.734;2023-06-10T12:37:10;98962.09;;;25.84;56.87
51759;BME280;66684;47.568;18.734;2023-06-10T12:39:40;98960.88;;;25.66;65.58
51759;BME280;66684;47.568;18.734;2023-06-10T12:42:06;98971.53;;;25.92;72.29
51759;BME280;66684;47.568;18.734;2023-06-10T12:44:38;98971.41;;;25.08;71.26
51759;BME280;66684;47.568;18.734;2023-06-10T12:47:11;98971.03;;;24.55;77.81
51759;BME280;66684;47.568;18.734;2023-06-10T12:49:40;98977.06;;;24.25;79.13
51759;BME280;66684;47.568;18.734;2023-06-10T12:52:06;98969.56;;;24.08;78.24
51759;BME280;66684;47.568;18.734;2023-06-10T12:54:34;98968.56;;;23.75;81.59
51759;BME280;66684;47.568;18.734;2023-06-10T12:57:00;98959.88;;;23.71;83.66